sensor_id;sensor_type;location;lat;lon;timestamp;pressure;altitude;pressure_sealevel;temperature;humidity
22775;BME280;11554;51.106;3.684;2023-03-16T00:00:00;101622.88;;;5.74;100.0
22775;BME280;11554;51.106;3.684;2023-03-16T00:05:00;101619.59000000001;;;5.73;100.0
22775;BME280;11554;51.106;3.684;2023-03-16T00:10:00;101617.6;;;5.70;100.0
22775;BME280;11554;51.106;3.684;2023-03-16T00:15:00;101620.5;;;5.69;100.0
22775;BME280;11554;51.106;3.684;2023-03-16T00:20:00;101615.95;;;5.69;100.0
22775;BME280;11554;51.106;3.684;2023-03-16T00:25:00;101610.46;;;5.73;100.0
22775;BME280;11554;51.106;3.684;2023-03-16T00:30:00;101603.28;;;5.70;100.0
22775;BME280;11554;51.106;3.684;2023-03-16T00:35:00;101604.43000000001;;;5.70;100.0
22775;BME280;11554;51.106;3.684;2023-03-16T00:40:00;101599.85;;;5.71;100.0
22775;BME280;11554;51.106;3.684;2023-03-16T00:45:00;101601.83;;;5.72;100.0
22775;BME280;11554;51.106;3.684;2023-03-16T00:50:00;101594.05;;;5.74;100.0
22775;BME280;11554;51.106;3.684;2023-03-16T00:55:00;101583.51;;;5.70;100.0
22775;BME280;11554;51.106;3.684;2023-03-16T01:00:00;101577.75;;;5.71;100.0
22775;BME280;11554;51.106;3.684;2023-03-16T01:05:00;101572.74;;;5.71;100.0
22775;BME280;11554;51.106;3.684;2023-03-16T01:10:00;101567.47;;;5.69;100.0
22775;BME280;11554;51.106;3.684;2023-03-16T01:15:00;101566.8;;;5.68;100.0
22775;BME280;11554;51.106;3.684;2023-03-16T01:20:00;101561.97;;;5.68;100.0
22775;BME280;11554;51.106;3.684;2023-03-16T01:25:00;101559.5;;;5.67;100.0
22775;BME280;11554;51.106;3.684;2023-03-16T01:30:00;101553.88;;;5.66;100.0
22775;BME280;11554;51.106;3.684;2023-03-16T01:35:00;101543.25;;;5.65;100.0
22775;BME280;11554;51.106;3.684;2023-03-16T01:40:00;101529.83;;;5.63;100.0
22775;BME280;11554;51.106;3.684;2023-03-16T01:45:00;101511.63;;;5.63;100.0
22775;BME280;11554;51.106;3.684;2023-03-16T01:50:00;101504.1;;;5.61;100.0
22775;BME280;11554;51.106;3.684;2023-03-16T01:55:01;101499.91;;;5.60;100.0
22775;BME280;11554;51.106;3.684;2023-03-16T02:00:02;101488.49;;;5.59;100.0
22775;BME280;11554;51.106;3.684;2023-03-16T02:05:01;101487.97;;;5.57;100.0
22775;BME280;11554;51.106;3.684;2023-03-16T02:10:00;101479.29000000001;;;5.57;100.0
22775;BME280;11554;51.106;3.684;2023-03-16T02:15:00;101473.53;;;5.56;100.0
22775;BME280;11554;51.106;3.684;2023-03-16T02:20:05;101469.95;;;5.57;100.0
22775;BME280;11554;51.106;3.684;2023-03-16T02:25:00;101465.62;;;5.57;100.0
22775;BME280;11554;51.106;3.684;2023-03-16T02:30:02;101457.14;;;5.58;100.0
22775;BME280;11554;51.106;3.684;2023-03-16T02:35:00;101453.75;;;5.55;100.0
22775;BME280;11554;51.106;3.684;2023-03-16T02:40:00;101437.86;;;5.54;100.0
22775;BME280;11554;51.106;3.684;2023-03-16T02:45:00;101430.67;;;5.53;100.0
22775;BME280;11554;51.106;3.684;2023-03-16T02:50:00;101418.94;;;5.51;100.0
22775;BME280;11554;51.106;3.684;2023-03-16T02:55:00;101411.3;;;5.52;100.0
22775;BME280;11554;51.106;3.684;2023-03-16T03:00:00;101405.40999999999;;;5.50;100.0
22775;BME280;11554;51.106;3.684;2023-03-16T03:05:00;101406.95;;;5.51;100.0
22775;BME280;11554;51.106;3.684;2023-03-16T03:10:00;101406.89;;;5.51;100.0
22775;BME280;11554;51.106;3.684;2023-03-16T03:15:00;101397.02;;;5.52;100.0
22775;BME280;11554;51.106;3.684;2023-03-16T03:20:00;101395.74;;;5.53;100.0
22775;BME280;11554;51.106;3.684;2023-03-16T03:25:00;101384.89;;;5.53;100.0
22775;BME280;11554;51.106;3.684;2023-03-16T03:30:00;101385.06;;;5.52;100.0
22775;BME280;11554;51.106;3.684;2023-03-16T03:35:00;101372.25;;;5.53;100.0
22775;BME280;11554;51.106;3.684;2023-03-16T03:40:00;101364.75;;;5.54;100.0
22775;BME280;11554;51.106;3.684;2023-03-16T03:45:00;101359.41;;;5.57;100.0
22775;BME280;11554;51.106;3.684;2023-03-16T03:50:00;101358.5;;;5.59;100.0
22775;BME280;11554;51.106;3.684;2023-03-16T03:55:00;101347.42;;;5.58;100.0
22775;BME280;11554;51.106;3.684;2023-03-16T04:00:00;101350.44;;;5.62;100.0
22775;BME280;11554;51.106;3.684;2023-03-16T04:05:00;101346.41;;;5.63;100.0
22775;BME280;11554;51.106;3.684;2023-03-16T04:10:00;101340.75;;;5.64;100.0
22775;BME280;11554;51.106;3.684;2023-03-16T04:15:00;101329.12;;;5.64;100.0
22775;BME280;11554;51.106;3.684;2023-03-16T04:20:00;101329.11;;;5.61;100.0
22775;BME280;11554;51.106;3.684;2023-03-16T04:25:00;101322.06999999999;;;5.61;100.0
22775;BME280;11554;51.106;3.684;2023-03-16T04:30:00;101329.97;;;5.63;100.0
22775;BME280;11554;51.106;3.684;2023-03-16T04:35:00;101314.11;;;5.63;100.0
22775;BME280;11554;51.106;3.684;2023-03-16T04:40:00;101318.45;;;5.60;100.0
22775;BME280;11554;51.106;3.684;2023-03-16T04:45:00;101320.26;;;5.57;100.0
22775;BME280;11554;51.106;3.684;2023-03-16T04:50:00;101313.12000000001;;;5.57;100.0
22775;BME280;11554;51.106;3.684;2023-03-16T04:55:00;101303.88;;;5.58;100.0
22775;BME280;11554;51.106;3.684;2023-03-16T05:00:00;101302.59;;;5.54;100.0
22775;BME280;11554;51.106;3.684;2023-03-16T05:05:00;101295.97;;;5.54;100.0
22775;BME280;11554;51.106;3.684;2023-03-16T05:10:00;101290.99;;;5.50;100.0
22775;BME280;11554;51.106;3.684;2023-03-16T05:15:00;101277.14;;;5.51;100.0
22775;BME280;11554;51.106;3.684;2023-03-16T05:20:00;101280.35;;;5.58;100.0
22775;BME280;11554;51.106;3.684;2023-03-16T05:25:00;101277.75;;;5.57;100.0
22775;BME280;11554;51.106;3.684;2023-03-16T05:30:00;101282.62;;;5.58;100.0
22775;BME280;11554;51.106;3.684;2023-03-16T05:35:00;101278.05;;;5.56;100.0
22775;BME280;11554;51.106;3.684;2023-03-16T05:40:00;101281.06;;;5.60;99.03
22775;BME280;11554;51.106;3.684;2023-03-16T05:45:00;101278.59;;;5.65;98.52
22775;BME280;11554;51.106;3.684;2023-03-16T05:50:00;101284.17;;;5.66;98.28
22775;BME280;11554;51.106;3.684;2023-03-16T05:55:01;101277.92;;;5.66;97.45
22775;BME280;11554;51.106;3.684;2023-03-16T06:00:00;101272.52;;;5.71;97.13
22775;BME280;11554;51.106;3.684;2023-03-16T06:05:00;101265.12;;;5.69;97.06
22775;BME280;11554;51.106;3.684;2023-03-16T06:10:00;101267.52;;;5.72;96.62
22775;BME280;11554;51.106;3.684;2023-03-16T06:15:00;101275.36;;;5.74;96.55
22775;BME280;11554;51.106;3.684;2023-03-16T06:20:00;101267.86;;;5.76;95.97
22775;BME280;11554;51.106;3.684;2023-03-16T06:25:00;101287.69;;;5.75;96.26
22775;BME280;11554;51.106;3.684;2023-03-16T06:30:00;101285.79999999999;;;5.76;95.94
22775;BME280;11554;51.106;3.684;2023-03-16T06:35:00;101265.59;;;5.76;95.82
22775;BME280;11554;51.106;3.684;2023-03-16T06:40:00;101265.75;;;5.80;95.55
22775;BME280;11554;51.106;3.684;2023-03-16T06:45:00;101269.20999999999;;;5.86;95.25
22775;BME280;11554;51.106;3.684;2023-03-16T06:50:00;101275.9;;;5.89;94.96
22775;BME280;11554;51.106;3.684;2023-03-16T06:55:00;101270.14;;;5.94;94.28
22775;BME280;11554;51.106;3.684;2023-03-16T07:00:00;101267.92;;;6.07;94.54
22775;BME280;11554;51.106;3.684;2023-03-16T07:05:00;101274.22;;;6.37;94.0
22775;BME280;11554;51.106;3.684;2023-03-16T07:10:00;101271.66;;;6.73;92.35
22775;BME280;11554;51.106;3.684;2023-03-16T07:15:00;101264.57;;;7.45;91.32
22775;BME280;11554;51.106;3.684;2023-03-16T07:20:00;101264.67;;;7.72;87.81
22775;BME280;11554;51.106;3.684;2023-03-16T07:25:00;101264.12;;;7.88;89.16
22775;BME280;11554;51.106;3.684;2023-03-16T07:30:00;101271.73;;;8.20;87.42
22775;BME280;11554;51.106;3.684;2023-03-16T07:35:00;101264.70000000001;;;8.13;85.69
22775;BME280;11554;51.106;3.684;2023-03-16T07:40:00;101265.59999999999;;;8.18;85.98
22775;BME280;11554;51.106;3.684;2023-03-16T07:45:00;101274.11;;;8.35;85.88
22775;BME280;11554;51.106;3.684;2023-03-16T07:50:00;101270.56999999999;;;8.36;84.68
22775;BME280;11554;51.106;3.684;2023-03-16T07:55:00;101261.05;;;8.45;84.61
22775;BME280;11554;51.106;3.684;2023-03-16T08:00:00;101262.81;;;8.68;82.13
22775;BME280;11554;51.106;3.684;2023-03-16T08:05:00;101259.69;;;8.80;83.79
22775;BME280;11554;51.106;3.684;2023-03-16T08:10:00;101260.94;;;8.97;81.97
22775;BME280;11554;51.106;3.684;2023-03-16T08:15:00;101260.22;;;9.29;81.06
22775;BME280;11554;51.106;3.684;2023-03-16T08:20:00;101261.53;;;9.56;80.35
22775;BME280;11554;51.106;3.684;2023-03-16T08:25:00;101266.44;;;9.62;77.91
22775;BME280;11554;51.106;3.684;2023-03-16T08:30:00;101271.89;;;9.64;78.37
22775;BME280;11554;51.106;3.684;2023-03-16T08:35:00;101263.31999999999;;;9.55;77.16
22775;BME280;11554;51.106;3.684;2023-03-16T08:40:00;101265.47;;;9.46;78.48
22775;BME280;11554;51.106;3.684;2023-03-16T08:45:00;101264.4;;;9.43;77.46
22775;BME280;11554;51.106;3.684;2023-03-16T08:50:00;101261.46;;;9.56;77.14
22775;BME280;11554;51.106;3.684;2023-03-16T08:55:00;101268.98;;;9.68;76.53
22775;BME280;11554;51.106;3.684;2023-03-16T09:00:00;101259.61;;;9.83;76.88
22775;BME280;11554;51.106;3.684;2023-03-16T09:05:00;101257.64;;;10.04;76.67
22775;BME280;11554;51.106;3.684;2023-03-16T09:10:00;101255.52;;;10.22;76.57
22775;BME280;11554;51.106;3.684;2023-03-16T09:15:00;101254.17;;;10.05;75.38
22775;BME280;11554;51.106;3.684;2023-03-16T09:20:00;101250.86;;;10.11;77.37
22775;BME280;11554;51.106;3.684;2023-03-16T09:25:00;101245.9;;;10.18;76.59
22775;BME280;11554;51.106;3.684;2023-03-16T09:30:00;101250.31;;;10.30;75.32
22775;BME280;11554;51.106;3.684;2023-03-16T09:35:00;101245.98;;;10.50;75.55
22775;BME280;11554;51.106;3.684;2023-03-16T09:40:00;101251.06;;;11.08;74.91
22775;BME280;11554;51.106;3.684;2023-03-16T09:45:09;101248.36;;;11.24;74.65
22775;BME280;11554;51.106;3.684;2023-03-16T09:50:02;101246.28;;;11.65;75.64
22775;BME280;11554;51.106;3.684;2023-03-16T09:55:02;101235.96;;;11.84;73.03
22775;BME280;11554;51.106;3.684;2023-03-16T10:00:03;101239.49;;;12.51;73.17
22775;BME280;11554;51.106;3.684;2023-03-16T10:05:01;101229.97;;;12.99;69.64
22775;BME280;11554;51.106;3.684;2023-03-16T10:10:01;101214.18;;;13.10;69.67
22775;BME280;11554;51.106;3.684;2023-03-16T10:15:02;101208.51;;;13.34;68.36
22775;BME280;11554;51.106;3.684;2023-03-16T10:20:01;101209.95;;;13.97;67.03
22775;BME280;11554;51.106;3.684;2023-03-16T10:25:01;101195.09000000001;;;14.06;68.51
22775;BME280;11554;51.106;3.684;2023-03-16T10:30:00;101195.06999999999;;;14.09;66.87
22775;BME280;11554;51.106;3.684;2023-03-16T10:35:01;101187.3;;;14.21;66.03
22775;BME280;11554;51.106;3.684;2023-03-16T10:40:04;101174.31;;;13.96;65.0
22775;BME280;11554;51.106;3.684;2023-03-16T10:45:00;101183.53;;;14.26;65.37
22775;BME280;11554;51.106;3.684;2023-03-16T10:50:12;101172.6;;;15.04;65.65
22775;BME280;11554;51.106;3.684;2023-03-16T10:55:01;101160.90000000001;;;15.55;64.63
22775;BME280;11554;51.106;3.684;2023-03-16T11:00:03;101159.40000000001;;;15.25;64.04
22775;BME280;11554;51.106;3.684;2023-03-16T11:05:10;101158.95000000001;;;15.41;63.67
22775;BME280;11554;51.106;3.684;2023-03-16T11:10:11;101169.89;;;15.00;61.72
22775;BME280;11554;51.106;3.684;2023-03-16T11:15:00;101169.31;;;14.70;64.25
22775;BME280;11554;51.106;3.684;2023-03-16T11:20:01;101156.02;;;15.02;64.79
22775;BME280;11554;51.106;3.684;2023-03-16T11:25:03;101151.28;;;15.08;64.55
22775;BME280;11554;51.106;3.684;2023-03-16T11:30:02;101135.51999999999;;;15.18;63.04
22775;BME280;11554;51.106;3.684;2023-03-16T11:35:00;101123.95;;;15.78;63.51
22775;BME280;11554;51.106;3.684;2023-03-16T11:40:02;101116.02;;;15.95;63.55
22775;BME280;11554;51.106;3.684;2023-03-16T11:45:03;101104.13;;;16.27;61.23
22775;BME280;11554;51.106;3.684;2023-03-16T11:50:02;101101.9;;;16.50;60.88
22775;BME280;11554;51.106;3.684;2023-03-16T11:55:03;101102.15;;;16.09;58.55
22775;BME280;11554;51.106;3.684;2023-03-16T12:00:04;101087.26000000001;;;16.32;59.03
22775;BME280;11554;51.106;3.684;2023-03-16T12:05:08;101088.31999999999;;;15.96;61.39
22775;BME280;11554;51.106;3.684;2023-03-16T12:10:10;101071.56;;;16.69;60.13
22775;BME280;11554;51.106;3.684;2023-03-16T12:15:07;101057.54;;;16.33;60.64
22775;BME280;11554;51.106;3.684;2023-03-16T12:20:01;101055.78;;;16.75;60.56
22775;BME280;11554;51.106;3.684;2023-03-16T12:25:01;101059.84999999999;;;16.75;57.98
22775;BME280;11554;51.106;3.684;2023-03-16T12:30:02;101047.11;;;17.06;59.82
22775;BME280;11554;51.106;3.684;2023-03-16T12:35:02;101050.68;;;17.21;59.37
22775;BME280;11554;51.106;3.684;2023-03-16T12:40:02;101033.08;;;16.95;58.56
22775;BME280;11554;51.106;3.684;2023-03-16T12:45:01;101039.45999999999;;;17.24;58.15
22775;BME280;11554;51.106;3.684;2023-03-16T12:50:03;101029.19;;;16.90;58.92
22775;BME280;11554;51.106;3.684;2023-03-16T12:55:05;101028.64;;;16.83;57.13
22775;BME280;11554;51.106;3.684;2023-03-16T13:00:00;101020.15;;;17.13;59.61
22775;BME280;11554;51.106;3.684;2023-03-16T13:05:01;101005.8;;;17.62;58.57
22775;BME280;11554;51.106;3.684;2023-03-16T13:10:01;100995.01000000001;;;17.59;56.59
22775;BME280;11554;51.106;3.684;2023-03-16T13:15:00;100992.94;;;17.21;55.97
22775;BME280;11554;51.106;3.684;2023-03-16T13:20:04;101002.0;;;17.34;57.46
22775;BME280;11554;51.106;3.684;2023-03-16T13:25:10;100986.79;;;17.53;58.44
22775;BME280;11554;51.106;3.684;2023-03-16T13:30:01;100988.12000000001;;;17.87;57.95
22775;BME280;11554;51.106;3.684;2023-03-16T13:35:01;100982.08;;;18.02;56.46
22775;BME280;11554;51.106;3.684;2023-03-16T13:40:01;100973.27;;;17.51;56.15
22775;BME280;11554;51.106;3.684;2023-03-16T13:45:09;100962.43;;;17.58;55.19
22775;BME280;11554;51.106;3.684;2023-03-16T13:50:00;100950.99;;;17.55;56.69
22775;BME280;11554;51.106;3.684;2023-03-16T13:55:02;100951.03;;;17.65;59.38
22775;BME280;11554;51.106;3.684;2023-03-16T14:00:02;100943.48999999999;;;17.76;56.76
22775;BME280;11554;51.106;3.684;2023-03-16T14:05:07;100946.5;;;17.96;56.31
22775;BME280;11554;51.106;3.684;2023-03-16T14:10:00;100937.79;;;18.10;56.16
22775;BME280;11554;51.106;3.684;2023-03-16T14:15:02;100934.92;;;17.92;56.85
22775;BME280;11554;51.106;3.684;2023-03-16T14:20:00;100938.53;;;17.72;56.37
22775;BME280;11554;51.106;3.684;2023-03-16T14:25:00;100932.9;;;17.74;57.12
22775;BME280;11554;51.106;3.684;2023-03-16T14:30:01;100919.83;;;17.75;55.56
22775;BME280;11554;51.106;3.684;2023-03-16T14:35:03;100914.62;;;17.81;55.04
22775;BME280;11554;51.106;3.684;2023-03-16T14:40:00;100908.67;;;17.54;54.62
22775;BME280;11554;51.106;3.684;2023-03-16T14:45:01;100896.26;;;17.28;53.4
22775;BME280;11554;51.106;3.684;2023-03-16T14:50:02;100892.22;;;16.77;55.23
22775;BME280;11554;51.106;3.684;2023-03-16T14:55:00;100885.42;;;17.02;55.38
22775;BME280;11554;51.106;3.684;2023-03-16T15:00:00;100888.33;;;17.11;55.31
22775;BME280;11554;51.106;3.684;2023-03-16T15:05:00;100898.5;;;17.23;56.02
22775;BME280;11554;51.106;3.684;2023-03-16T15:10:02;100895.4;;;17.18;54.66
22775;BME280;11554;51.106;3.684;2023-03-16T15:15:00;100877.37;;;17.34;55.42
22775;BME280;11554;51.106;3.684;2023-03-16T15:20:00;100883.81000000001;;;17.10;55.69
22775;BME280;11554;51.106;3.684;2023-03-16T15:25:01;100880.31;;;16.80;57.35
22775;BME280;11554;51.106;3.684;2023-03-16T15:30:00;100874.98000000001;;;16.20;56.35
22775;BME280;11554;51.106;3.684;2023-03-16T15:35:00;100877.95;;;15.50;55.76
22775;BME280;11554;51.106;3.684;2023-03-16T15:40:00;100872.56;;;14.99;57.56
22775;BME280;11554;51.106;3.684;2023-03-16T15:45:00;100861.79;;;15.16;57.96
22775;BME280;11554;51.106;3.684;2023-03-16T15:50:00;100861.01999999999;;;14.86;59.22
22775;BME280;11554;51.106;3.684;2023-03-16T15:55:00;100851.89;;;14.53;60.14
22775;BME280;11554;51.106;3.684;2023-03-16T16:00:00;100844.7;;;14.59;59.17
22775;BME280;11554;51.106;3.684;2023-03-16T16:05:00;100840.01;;;14.72;58.95
22775;BME280;11554;51.106;3.684;2023-03-16T16:10:00;100850.19;;;14.41;58.75
22775;BME280;11554;51.106;3.684;2023-03-16T16:15:00;100845.73000000001;;;14.06;61.04
22775;BME280;11554;51.106;3.684;2023-03-16T16:20:00;100843.89;;;13.84;61.88
22775;BME280;11554;51.106;3.684;2023-03-16T16:25:00;100839.09;;;13.61;60.44
22775;BME280;11554;51.106;3.684;2023-03-16T16:30:00;100841.52;;;13.42;61.27
22775;BME280;11554;51.106;3.684;2023-03-16T16:35:00;100840.77;;;13.28;61.87
22775;BME280;11554;51.106;3.684;2023-03-16T16:40:00;100821.39;;;13.17;62.54
22775;BME280;11554;51.106;3.684;2023-03-16T16:45:00;100820.08;;;13.17;64.51
22775;BME280;11554;51.106;3.684;2023-03-16T16:50:00;100830.08;;;13.06;64.53
22775;BME280;11554;51.106;3.684;2023-03-16T16:55:00;100824.18000000001;;;12.91;64.8
22775;BME280;11554;51.106;3.684;2023-03-16T17:00:00;100813.55;;;12.70;65.97
22775;BME280;11554;51.106;3.684;2023-03-16T17:05:00;100813.73;;;12.51;66.15
22775;BME280;11554;51.106;3.684;2023-03-16T17:10:00;100811.84;;;12.35;66.07
22775;BME280;11554;51.106;3.684;2023-03-16T17:15:00;100808.26;;;12.20;66.29
22775;BME280;11554;51.106;3.684;2023-03-16T17:20:00;100802.09;;;12.12;66.03
22775;BME280;11554;51.106;3.684;2023-03-16T17:25:00;100801.37;;;12.01;66.38
22775;BME280;11554;51.106;3.684;2023-03-16T17:30:00;100791.61;;;11.93;66.56
22775;BME280;11554;51.106;3.684;2023-03-16T17:35:00;100798.77;;;11.82;66.9
22775;BME280;11554;51.106;3.684;2023-03-16T17:40:00;100793.64;;;11.72;66.97
22775;BME280;11554;51.106;3.684;2023-03-16T17:45:00;100807.22;;;11.56;67.3
22775;BME280;11554;51.106;3.684;2023-03-16T17:50:00;100795.15;;;11.46;67.11
22775;BME280;11554;51.106;3.684;2023-03-16T17:55:00;100780.0;;;11.40;66.99
22775;BME280;11554;51.106;3.684;2023-03-16T18:00:01;100786.99;;;11.43;65.96
22775;BME280;11554;51.106;3.684;2023-03-16T18:05:00;100791.79000000001;;;11.30;67.15
22775;BME280;11554;51.106;3.684;2023-03-16T18:10:00;100796.33;;;11.35;65.57
22775;BME280;11554;51.106;3.684;2023-03-16T18:15:00;100799.04000000001;;;11.24;66.09
22775;BME280;11554;51.106;3.684;2023-03-16T18:20:00;100795.54000000001;;;11.12;66.52
22775;BME280;11554;51.106;3.684;2023-03-16T18:25:00;100786.84;;;11.02;67.31
22775;BME280;11554;51.106;3.684;2023-03-16T18:30:00;100794.09000000001;;;10.95;67.67
22775;BME280;11554;51.106;3.684;2023-03-16T18:35:00;100783.47;;;10.86;67.44
22775;BME280;11554;51.106;3.684;2023-03-16T18:40:00;100785.86;;;10.73;68.03
22775;BME280;11554;51.106;3.684;2023-03-16T18:45:00;100783.36;;;10.65;68.81
22775;BME280;11554;51.106;3.684;2023-03-16T18:50:00;100781.19;;;10.55;69.22
22775;BME280;11554;51.106;3.684;2023-03-16T18:55:00;100780.64;;;10.60;69.47
22775;BME280;11554;51.106;3.684;2023-03-16T19:00:00;100785.97;;;10.56;69.92
22775;BME280;11554;51.106;3.684;2023-03-16T19:05:01;100781.92;;;10.37;70.27
22775;BME280;11554;51.106;3.684;2023-03-16T19:10:00;100780.93000000001;;;10.33;71.46
22775;BME280;11554;51.106;3.684;2023-03-16T19:15:00;100772.19;;;10.23;71.79
22775;BME280;11554;51.106;3.684;2023-03-16T19:20:00;100761.86;;;10.19;71.95
22775;BME280;11554;51.106;3.684;2023-03-16T19:25:00;100754.07;;;10.24;72.23
22775;BME280;11554;51.106;3.684;2023-03-16T19:30:00;100748.08;;;10.14;72.54
22775;BME280;11554;51.106;3.684;2023-03-16T19:35:00;100752.25;;;10.15;72.88
22775;BME280;11554;51.106;3.684;2023-03-16T19:40:00;100744.56;;;10.04;73.66
22775;BME280;11554;51.106;3.684;2023-03-16T19:50:00;100721.26;;;10.16;73.21
22775;BME280;11554;51.106;3.684;2023-03-16T19:55:00;100725.03;;;10.12;73.42
22775;BME280;11554;51.106;3.684;2023-03-16T20:00:00;100725.31;;;10.16;73.19
22775;BME280;11554;51.106;3.684;2023-03-16T20:05:00;100709.82;;;10.17;73.24
22775;BME280;11554;51.106;3.684;2023-03-16T20:10:00;100712.69;;;10.13;73.86
22775;BME280;11554;51.106;3.684;2023-03-16T20:15:00;100714.83;;;10.08;73.55
22775;BME280;11554;51.106;3.684;2023-03-16T20:20:00;100706.12999999999;;;10.10;73.68
22775;BME280;11554;51.106;3.684;2023-03-16T20:25:00;100692.04999999999;;;10.11;73.68
22775;BME280;11554;51.106;3.684;2023-03-16T20:30:00;100703.05;;;10.16;73.64
22775;BME280;11554;51.106;3.684;2023-03-16T20:35:00;100688.81999999999;;;10.19;73.91
22775;BME280;11554;51.106;3.684;2023-03-16T20:40:00;100681.34;;;10.14;74.15
22775;BME280;11554;51.106;3.684;2023-03-16T20:45:00;100666.81999999999;;;10.16;74.25
22775;BME280;11554;51.106;3.684;2023-03-16T20:50:00;100669.09000000001;;;10.17;74.73
22775;BME280;11554;51.106;3.684;2023-03-16T20:55:00;100671.78;;;10.19;74.78
22775;BME280;11554;51.106;3.684;2023-03-16T21:00:00;100690.39;;;10.07;75.5
22775;BME280;11554;51.106;3.684;2023-03-16T21:05:01;100689.62;;;9.98;76.44
22775;BME280;11554;51.106;3.684;2023-03-16T21:10:00;100690.37;;;9.92;77.03
22775;BME280;11554;51.106;3.684;2023-03-16T21:15:01;100693.03;;;9.85;77.48
22775;BME280;11554;51.106;3.684;2023-03-16T21:20:00;100689.72;;;9.81;78.18
22775;BME280;11554;51.106;3.684;2023-03-16T21:25:00;100670.08;;;9.84;78.11
22775;BME280;11554;51.106;3.684;2023-03-16T21:30:01;100674.56;;;9.91;78.11
22775;BME280;11554;51.106;3.684;2023-03-16T21:35:00;100668.51000000001;;;9.81;78.58
22775;BME280;11554;51.106;3.684;2023-03-16T21:40:00;100674.76000000001;;;9.88;78.41
22775;BME280;11554;51.106;3.684;2023-03-16T21:45:00;100671.98;;;9.92;78.31
22775;BME280;11554;51.106;3.684;2023-03-16T21:50:00;100679.44;;;9.81;79.09
22775;BME280;11554;51.106;3.684;2023-03-16T21:55:00;100668.05;;;9.78;78.94
22775;BME280;11554;51.106;3.684;2023-03-16T22:00:00;100654.83;;;9.80;78.99
22775;BME280;11554;51.106;3.684;2023-03-16T22:05:00;100635.0;;;9.80;79.11
22775;BME280;11554;51.106;3.684;2023-03-16T22:10:00;100634.03;;;9.84;79.06
22775;BME280;11554;51.106;3.684;2023-03-16T22:15:00;100653.33;;;9.82;79.08
22775;BME280;11554;51.106;3.684;2023-03-16T22:20:00;100664.64;;;9.74;79.21
22775;BME280;11554;51.106;3.684;2023-03-16T22:25:00;100645.33;;;9.78;79.06
22775;BME280;11554;51.106;3.684;2023-03-16T22:30:00;100640.55;;;9.82;78.95
22775;BME280;11554;51.106;3.684;2023-03-16T22:35:00;100648.1;;;9.72;79.28
22775;BME280;11554;51.106;3.684;2023-03-16T22:40:00;100651.42;;;9.60;79.55
22775;BME280;11554;51.106;3.684;2023-03-16T22:45:00;100655.62;;;9.51;79.85
22775;BME280;11554;51.106;3.684;2023-03-16T22:50:00;100651.87;;;9.51;80.18
22775;BME280;11554;51.106;3.684;2023-03-16T22:55:01;100646.55;;;9.49;79.94
22775;BME280;11554;51.106;3.684;2023-03-16T23:00:00;100652.61;;;9.39;80.33
22775;BME280;11554;51.106;3.684;2023-03-16T23:05:00;100658.25;;;9.35;80.3
22775;BME280;11554;51.106;3.684;2023-03-16T23:10:00;100644.98;;;9.32;80.66
22775;BME280;11554;51.106;3.684;2023-03-16T23:15:00;100646.19;;;9.29;80.73
22775;BME280;11554;51.106;3.684;2023-03-16T23:20:00;100640.69;;;9.44;79.97
22775;BME280;11554;51.106;3.684;2023-03-16T23:25:00;100641.69;;;9.35;80.19
22775;BME280;11554;51.106;3.684;2023-03-16T23:30:00;100642.3;;;9.23;80.5
22775;BME280;11554;51.106;3.684;2023-03-16T23:35:00;100627.66;;;9.17;81.0
22775;BME280;11554;51.106;3.684;2023-03-16T23:40:00;100630.89;;;9.23;80.53
22775;BME280;11554;51.106;3.684;2023-03-16T23:45:03;100622.24;;;9.15;80.35
22775;BME280;11554;51.106;3.684;2023-03-16T23:50:00;100625.62000000001;;;8.99;80.55
22775;BME280;11554;51.106;3.684;2023-03-16T23:55:00;100634.05;;;8.85;81.07
